createdAt,value
2018-06-03T00:00:06.531Z,15.37
2018-06-03T00:01:14.589Z,15.41
2018-06-03T00:02:22.676Z,15.37
2018-06-03T00:03:30.741Z,15.32
2018-06-03T00:04:38.801Z,15.39
2018-06-03T00:05:46.855Z,15.36
2018-06-03T00:06:54.919Z,15.26
2018-06-03T00:08:02.987Z,15.35
2018-06-03T00:09:11.062Z,15.26
2018-06-03T00:10:19.133Z,15.37
2018-06-03T00:11:27.204Z,15.26
2018-06-03T00:12:35.257Z,15.17
2018-06-03T00:13:43.319Z,15.17
2018-06-03T00:14:51.394Z,15.22
2018-06-03T00:15:59.455Z,15.15
2018-06-03T00:17:07.524Z,15.17
2018-06-03T00:18:15.588Z,15.19
2018-06-03T00:19:23.649Z,15.10
2018-06-03T00:20:31.768Z,15.05
2018-06-03T00:21:39.792Z,15.11
2018-06-03T00:22:47.854Z,15.10
2018-06-03T00:23:55.929Z,15.07
2018-06-03T00:25:03.976Z,15.14
2018-06-03T00:26:12.085Z,15.11
2018-06-03T00:27:20.148Z,15.15
2018-06-03T00:28:28.207Z,15.00
2018-06-03T00:29:36.263Z,15.10
2018-06-03T00:30:44.311Z,15.02
2018-06-03T00:31:52.397Z,15.02
2018-06-03T00:33:00.456Z,15.00
2018-06-03T00:34:08.517Z,15.07
2018-06-03T00:35:16.606Z,15.10
2018-06-03T00:36:24.658Z,15.15
2018-06-03T00:37:32.724Z,14.96
2018-06-03T00:38:40.808Z,15.15
2018-06-03T00:39:48.863Z,14.99
2018-06-03T00:40:56.938Z,15.10
2018-06-03T00:42:05.106Z,14.99
2018-06-03T00:43:13.051Z,14.97
2018-06-03T00:44:21.129Z,14.97
2018-06-03T00:45:29.194Z,14.99
2018-06-03T00:46:37.251Z,15.00
2018-06-03T00:47:45.324Z,15.02
2018-06-03T00:48:53.392Z,15.00
2018-06-03T00:50:01.448Z,14.97
2018-06-03T00:51:09.527Z,14.96
2018-06-03T00:52:17.578Z,14.97
2018-06-03T00:53:25.650Z,14.99
2018-06-03T00:54:33.710Z,14.97
2018-06-03T00:55:41.800Z,14.96
2018-06-03T00:56:49.851Z,14.89
2018-06-03T00:57:57.912Z,14.96
2018-06-03T00:59:05.977Z,14.92
2018-06-03T01:00:14.024Z,14.81
2018-06-03T01:01:22.150Z,14.87
2018-06-03T01:02:30.187Z,14.93
2018-06-03T01:03:38.242Z,14.79
2018-06-03T01:04:46.319Z,14.92
2018-06-03T01:05:54.359Z,14.89
2018-06-03T01:07:02.454Z,14.87
2018-06-03T01:08:10.520Z,14.86
2018-06-03T01:09:18.581Z,14.87
2018-06-03T01:10:26.648Z,14.86
2018-06-03T01:11:34.711Z,14.81
2018-06-03T01:12:42.782Z,14.85
2018-06-03T01:13:50.845Z,14.86
2018-06-03T01:14:58.911Z,14.85
2018-06-03T01:16:06.972Z,14.89
2018-06-03T01:17:15.043Z,14.89
2018-06-03T01:18:23.119Z,14.89
2018-06-03T01:19:31.172Z,14.89
2018-06-03T01:20:39.240Z,14.85
2018-06-03T01:21:47.313Z,14.90
2018-06-03T01:22:55.384Z,14.93
2018-06-03T01:24:03.435Z,14.96
2018-06-03T01:25:11.525Z,14.99
2018-06-03T01:26:19.563Z,15.11
2018-06-03T01:27:27.634Z,15.10
2018-06-03T01:28:35.697Z,15.02
2018-06-03T01:29:43.775Z,15.12
2018-06-03T01:30:51.842Z,15.07
2018-06-03T01:31:59.895Z,15.08
2018-06-03T01:33:07.974Z,15.12
2018-06-03T01:34:16.034Z,15.08
2018-06-03T01:35:24.081Z,15.12
2018-06-03T01:36:32.174Z,15.12
2018-06-03T01:37:40.243Z,15.17
2018-06-03T01:38:48.300Z,15.10
2018-06-03T01:39:56.370Z,15.18
2018-06-03T01:41:04.428Z,15.10
2018-06-03T01:42:12.496Z,15.11
2018-06-03T01:43:20.565Z,15.10
2018-06-03T01:44:28.647Z,15.08
2018-06-03T01:45:36.717Z,15.15
2018-06-03T01:46:44.781Z,15.10
2018-06-03T01:47:52.835Z,15.12
2018-06-03T01:49:00.919Z,15.14
2018-06-03T01:50:08.978Z,15.14
2018-06-03T01:51:17.035Z,15.25
2018-06-03T01:52:25.121Z,15.17
2018-06-03T01:53:33.173Z,15.15
2018-06-03T01:54:41.241Z,15.22
2018-06-03T01:55:49.324Z,15.14
2018-06-03T01:56:57.389Z,15.12
2018-06-03T01:58:05.442Z,15.14
2018-06-03T01:59:13.548Z,15.11
2018-06-03T02:00:21.589Z,15.11
2018-06-03T02:01:29.665Z,15.22
2018-06-03T02:02:37.716Z,15.22
2018-06-03T02:03:45.789Z,15.08
2018-06-03T02:04:53.829Z,15.11
2018-06-03T02:06:01.911Z,15.11
2018-06-03T02:07:09.990Z,15.11
2018-06-03T02:08:18.063Z,15.12
2018-06-03T02:09:26.133Z,15.22
2018-06-03T02:10:34.186Z,15.05
2018-06-03T02:11:42.260Z,15.08
2018-06-03T02:12:50.323Z,15.00
2018-06-03T02:13:58.399Z,14.93
2018-06-03T02:15:06.456Z,14.99
2018-06-03T02:16:14.524Z,14.97
2018-06-03T02:17:22.608Z,14.97
2018-06-03T02:18:30.667Z,14.90
2018-06-03T02:19:38.736Z,14.92
2018-06-03T02:20:46.805Z,14.85
2018-06-03T02:21:54.874Z,14.73
2018-06-03T02:23:02.942Z,14.71
2018-06-03T02:24:11.037Z,14.85
2018-06-03T02:25:19.064Z,14.74
2018-06-03T02:26:27.141Z,14.68
2018-06-03T02:27:35.215Z,14.68
2018-06-03T02:28:43.281Z,14.68
2018-06-03T02:29:51.339Z,14.61
2018-06-03T02:30:59.423Z,14.63
2018-06-03T02:32:07.487Z,14.59
2018-06-03T02:33:15.545Z,14.53
2018-06-03T02:34:23.605Z,14.59
2018-06-03T02:35:31.702Z,14.59
2018-06-03T02:36:39.741Z,14.51
2018-06-03T02:37:47.801Z,14.55
2018-06-03T02:38:55.885Z,14.44
2018-06-03T02:40:03.925Z,14.45
2018-06-03T02:41:12.013Z,14.49
2018-06-03T02:42:20.059Z,14.48
2018-06-03T02:43:28.133Z,14.45
2018-06-03T02:44:36.200Z,14.41
2018-06-03T02:45:44.242Z,14.40
2018-06-03T02:46:52.336Z,14.44
2018-06-03T02:48:00.397Z,14.36
2018-06-03T02:49:08.480Z,14.36
2018-06-03T02:50:16.541Z,14.30
2018-06-03T02:51:24.591Z,14.31
2018-06-03T02:52:32.672Z,14.16
2018-06-03T02:53:40.739Z,14.25
2018-06-03T02:54:48.791Z,14.30
2018-06-03T02:55:56.859Z,14.22
2018-06-03T02:57:04.914Z,14.25
2018-06-03T02:58:12.993Z,14.22
2018-06-03T02:59:21.067Z,14.25
2018-06-03T03:00:29.121Z,14.18
2018-06-03T03:01:37.191Z,14.11
2018-06-03T03:02:45.256Z,14.07
2018-06-03T03:03:53.313Z,14.12
2018-06-03T03:05:01.449Z,14.11
2018-06-03T03:06:09.457Z,14.11
2018-06-03T03:07:17.519Z,14.03
2018-06-03T03:08:25.577Z,14.04
2018-06-03T03:09:33.644Z,14.08
2018-06-03T03:10:41.711Z,14.07
2018-06-03T03:11:49.777Z,14.04
2018-06-03T03:12:57.851Z,14.00
2018-06-03T03:14:05.902Z,14.04
2018-06-03T03:15:13.961Z,14.07
2018-06-03T03:16:22.039Z,14.11
2018-06-03T03:17:30.103Z,14.03
2018-06-03T03:18:38.174Z,14.07
2018-06-03T03:19:46.238Z,14.03
2018-06-03T03:20:54.297Z,14.01
2018-06-03T03:22:02.381Z,13.98
2018-06-03T03:23:10.432Z,14.03
2018-06-03T03:24:18.497Z,14.01
2018-06-03T03:25:26.577Z,13.86
2018-06-03T03:26:34.637Z,13.91
2018-06-03T03:27:42.714Z,14.01
2018-06-03T03:28:50.779Z,14.04
2018-06-03T03:29:58.843Z,14.00
2018-06-03T03:31:06.908Z,14.01
2018-06-03T03:32:14.967Z,13.97
2018-06-03T03:33:23.042Z,13.97
2018-06-03T03:34:31.109Z,13.91
2018-06-03T03:35:39.176Z,13.97
2018-06-03T03:36:47.243Z,14.04
2018-06-03T03:37:55.308Z,13.94
2018-06-03T03:39:03.370Z,14.07
2018-06-03T03:40:11.447Z,13.98
2018-06-03T03:41:19.507Z,14.07
2018-06-03T03:42:27.585Z,14.01
2018-06-03T03:43:35.646Z,14.05
2018-06-03T03:44:43.672Z,13.97
2018-06-03T03:45:51.763Z,14.00
2018-06-03T03:46:59.846Z,14.01
2018-06-03T03:48:07.894Z,14.07
2018-06-03T03:49:15.970Z,14.08
2018-06-03T03:50:24.011Z,14.05
2018-06-03T03:51:32.111Z,14.08
2018-06-03T03:52:40.160Z,14.13
2018-06-03T03:53:48.238Z,14.07
2018-06-03T03:54:56.296Z,14.13
2018-06-03T03:56:04.340Z,14.13
2018-06-03T03:57:12.428Z,14.15
2018-06-03T03:58:20.502Z,14.08
2018-06-03T03:59:28.561Z,14.07
2018-06-03T04:00:36.639Z,14.15
2018-06-03T04:01:44.680Z,14.16
2018-06-03T04:02:52.761Z,14.18
2018-06-03T04:04:00.831Z,14.20
2018-06-03T04:05:08.901Z,14.19
2018-06-03T04:06:16.949Z,14.19
2018-06-03T04:07:25.037Z,14.19
2018-06-03T04:08:33.109Z,14.19
2018-06-03T04:09:41.160Z,14.22
2018-06-03T04:10:49.237Z,14.23
2018-06-03T04:11:57.285Z,14.20
2018-06-03T04:13:05.358Z,14.25
2018-06-03T04:14:13.420Z,14.19
2018-06-03T04:15:21.528Z,14.22
2018-06-03T04:16:29.561Z,14.23
2018-06-03T04:17:37.620Z,14.22
2018-06-03T04:18:45.687Z,14.31
2018-06-03T04:19:53.735Z,14.31
2018-06-03T04:21:01.830Z,14.34
2018-06-03T04:22:09.891Z,14.28
2018-06-03T04:23:17.953Z,14.33
2018-06-03T04:24:26.028Z,14.33
2018-06-03T04:25:34.063Z,14.34
2018-06-03T04:26:42.147Z,14.28
2018-06-03T04:27:50.222Z,14.26
2018-06-03T04:28:58.288Z,14.45
2018-06-03T04:30:06.354Z,14.36
2018-06-03T04:31:14.390Z,14.41
2018-06-03T04:32:22.483Z,14.40
2018-06-03T04:33:30.767Z,14.43
2018-06-03T04:34:38.629Z,14.48
2018-06-03T04:35:46.708Z,14.55
2018-06-03T04:36:54.744Z,14.58
2018-06-03T04:38:02.808Z,14.56
2018-06-03T04:39:10.887Z,14.62
2018-06-03T04:40:18.944Z,14.62
2018-06-03T04:41:27.025Z,14.70
2018-06-03T04:42:35.087Z,14.67
2018-06-03T04:43:43.148Z,14.63
2018-06-03T04:44:51.216Z,14.77
2018-06-03T04:45:59.277Z,14.71
2018-06-03T04:47:07.352Z,14.81
2018-06-03T04:48:15.752Z,14.86
2018-06-03T04:49:23.465Z,14.87
2018-06-03T04:50:31.548Z,14.97
2018-06-03T04:51:39.617Z,14.96
2018-06-03T04:52:47.676Z,14.93
2018-06-03T04:53:55.747Z,14.99
2018-06-03T04:55:03.831Z,15.10
2018-06-03T04:56:11.887Z,15.07
2018-06-03T04:57:19.948Z,15.14
2018-06-03T04:58:28.047Z,15.10
2018-06-03T04:59:36.583Z,15.15
2018-06-03T05:00:44.801Z,15.44
2018-06-03T05:01:52.221Z,15.84
2018-06-03T05:03:00.294Z,15.99
2018-06-03T05:04:08.343Z,16.43
2018-06-03T05:05:16.423Z,16.66
2018-06-03T05:06:24.479Z,16.82
2018-06-03T05:07:32.549Z,16.84
2018-06-03T05:08:40.700Z,16.80
2018-06-03T05:09:48.975Z,16.73
2018-06-03T05:10:57.047Z,16.66
2018-06-03T05:12:05.532Z,16.58
2018-06-03T05:13:13.249Z,16.58
2018-06-03T05:14:22.707Z,16.57
2018-06-03T05:15:29.070Z,16.46
2018-06-03T05:16:37.088Z,16.43
2018-06-03T05:17:45.200Z,16.44
2018-06-03T05:18:53.222Z,16.44
2018-06-03T05:20:01.306Z,16.40
2018-06-03T05:21:09.359Z,16.47
2018-06-03T05:22:17.444Z,16.40
2018-06-03T05:23:25.554Z,16.49
2018-06-03T05:24:33.546Z,16.50
2018-06-03T05:25:41.636Z,16.66
2018-06-03T05:26:49.701Z,16.72
2018-06-03T05:27:57.768Z,16.79
2018-06-03T05:29:05.850Z,16.79
2018-06-03T05:30:13.902Z,16.79
2018-06-03T05:31:21.975Z,16.91
2018-06-03T05:32:30.033Z,16.91
2018-06-03T05:33:38.101Z,16.87
2018-06-03T05:34:46.173Z,16.94
2018-06-03T05:35:54.212Z,16.99
2018-06-03T05:37:02.312Z,17.12
2018-06-03T05:38:10.475Z,17.14
2018-06-03T05:39:18.997Z,17.24
2018-06-03T05:40:27.022Z,17.19
2018-06-03T05:41:35.186Z,17.22
2018-06-03T05:42:43.286Z,17.37
2018-06-03T05:43:50.717Z,17.44
2018-06-03T05:44:58.781Z,17.49
2018-06-03T05:46:06.856Z,17.50
2018-06-03T05:47:14.911Z,17.57
2018-06-03T05:48:22.995Z,17.52
2018-06-03T05:49:31.058Z,17.69
2018-06-03T05:50:39.121Z,17.73
2018-06-03T05:51:47.199Z,17.76
2018-06-03T05:52:55.259Z,17.78
2018-06-03T05:54:03.346Z,17.95
2018-06-03T05:55:11.404Z,17.95
2018-06-03T05:56:22.459Z,17.98
2018-06-03T05:57:28.867Z,18.08
2018-06-03T05:58:35.621Z,18.00
2018-06-03T05:59:43.668Z,18.08
2018-06-03T06:00:51.754Z,18.09
2018-06-03T06:01:59.816Z,18.16
2018-06-03T06:03:07.881Z,18.16
2018-06-03T06:04:15.959Z,18.18
2018-06-03T06:05:23.994Z,18.23
2018-06-03T06:06:32.079Z,18.36
2018-06-03T06:07:40.149Z,18.43
2018-06-03T06:08:48.227Z,18.55
2018-06-03T06:09:56.296Z,18.55
2018-06-03T06:11:04.350Z,18.61
2018-06-03T06:12:12.434Z,18.70
2018-06-03T06:13:20.503Z,18.67
2018-06-03T06:14:28.563Z,18.71
2018-06-03T06:15:36.634Z,18.78
2018-06-03T06:16:44.719Z,18.81
2018-06-03T06:17:52.776Z,18.85
2018-06-03T06:19:00.835Z,18.94
2018-06-03T06:20:08.941Z,18.92
2018-06-03T06:21:16.980Z,18.94
2018-06-03T06:22:25.061Z,18.94
2018-06-03T06:23:33.121Z,19.00
2018-06-03T06:24:41.188Z,19.05
2018-06-03T06:25:49.253Z,18.97
2018-06-03T06:26:57.332Z,18.94
2018-06-03T06:28:05.396Z,18.94
2018-06-03T06:29:13.459Z,18.98
2018-06-03T06:30:21.532Z,19.09
2018-06-03T06:31:29.610Z,18.91
2018-06-03T06:32:37.668Z,18.92
2018-06-03T06:33:45.747Z,19.04
2018-06-03T06:34:53.797Z,19.05
2018-06-03T06:36:01.907Z,19.11
2018-06-03T06:37:09.963Z,19.09
2018-06-03T06:38:18.022Z,19.08
2018-06-03T06:39:26.093Z,19.16
2018-06-03T06:40:34.143Z,19.09
2018-06-03T06:41:42.284Z,19.15
2018-06-03T06:42:50.295Z,19.19
2018-06-03T06:43:58.357Z,19.15
2018-06-03T06:45:06.432Z,19.19
2018-06-03T06:46:14.487Z,19.20
2018-06-03T06:47:22.576Z,19.23
2018-06-03T06:48:30.663Z,19.23
2018-06-03T06:49:38.714Z,19.38
2018-06-03T06:50:46.787Z,19.37
2018-06-03T06:51:54.856Z,19.34
2018-06-03T06:53:02.924Z,19.47
2018-06-03T06:54:10.995Z,19.48
2018-06-03T06:55:19.059Z,19.49
2018-06-03T06:56:27.139Z,19.63
2018-06-03T06:57:35.196Z,19.74
2018-06-03T06:58:43.268Z,19.82
2018-06-03T06:59:51.335Z,19.94
2018-06-03T07:00:59.408Z,20.03
2018-06-03T07:02:07.481Z,20.14
2018-06-03T07:03:15.546Z,20.11
2018-06-03T07:04:23.598Z,20.18
2018-06-03T07:05:31.680Z,20.29
2018-06-03T07:06:39.816Z,20.55
2018-06-03T07:07:47.830Z,20.67
2018-06-03T07:08:55.916Z,20.73
2018-06-03T07:10:03.948Z,20.83
2018-06-03T07:11:12.056Z,20.95
2018-06-03T07:12:20.127Z,21.11
2018-06-03T07:13:28.173Z,21.13
2018-06-03T07:14:36.259Z,21.25
2018-06-03T07:15:44.302Z,21.25
2018-06-03T07:16:52.393Z,21.53
2018-06-03T07:18:00.467Z,21.68
2018-06-03T07:19:08.542Z,21.72
2018-06-03T07:20:16.622Z,21.96
2018-06-03T07:21:24.661Z,22.04
2018-06-03T07:22:32.769Z,22.18
2018-06-03T07:23:40.849Z,22.23
2018-06-03T07:24:48.909Z,22.37
2018-06-03T07:25:56.985Z,22.52
2018-06-03T07:27:05.159Z,22.71
2018-06-03T07:28:13.125Z,22.93
2018-06-03T07:29:21.183Z,23.18
2018-06-03T07:30:30.875Z,23.45
2018-06-03T07:31:38.945Z,23.95
2018-06-03T07:32:47.023Z,24.24
2018-06-03T07:33:55.092Z,24.56
2018-06-03T07:35:03.164Z,25.15
2018-06-03T07:36:11.242Z,25.58
2018-06-03T07:37:19.321Z,26.31
2018-06-03T07:38:27.391Z,26.86
2018-06-03T07:39:35.463Z,27.48
2018-06-03T07:40:43.590Z,27.66
2018-06-03T07:41:51.628Z,28.15
2018-06-03T07:42:59.705Z,28.55
2018-06-03T07:44:09.193Z,28.84
2018-06-03T07:45:17.275Z,28.92
2018-06-03T07:46:25.347Z,29.06
2018-06-03T07:47:33.420Z,29.15
2018-06-03T07:48:41.504Z,28.84
2018-06-03T07:49:49.582Z,28.80
2018-06-03T07:50:57.679Z,28.94
2018-06-03T07:52:05.741Z,29.24
2018-06-03T07:53:13.838Z,29.05
2018-06-03T07:54:21.914Z,29.13
2018-06-03T07:55:30.024Z,28.83
2018-06-03T07:56:38.130Z,28.83
2018-06-03T07:57:46.184Z,29.00
2018-06-03T07:58:54.246Z,28.87
2018-06-03T08:00:02.359Z,28.87
2018-06-03T08:01:10.415Z,28.19
2018-06-03T08:02:18.504Z,28.23
2018-06-03T08:03:26.591Z,28.46
2018-06-03T08:04:34.666Z,28.59
2018-06-03T08:05:42.750Z,28.59
2018-06-03T08:06:51.364Z,28.20
2018-06-03T08:07:58.915Z,27.95
2018-06-03T08:09:07.332Z,27.52
2018-06-03T08:10:15.109Z,27.55
2018-06-03T08:11:23.167Z,27.93
2018-06-03T08:12:31.246Z,28.19
2018-06-03T08:13:39.347Z,28.55
2018-06-03T08:14:47.406Z,28.55
2018-06-03T08:15:55.504Z,28.62
2018-06-03T08:17:03.558Z,28.50
2018-06-03T08:18:11.656Z,28.18
2018-06-03T08:19:19.738Z,28.31
2018-06-03T08:20:27.825Z,28.23
2018-06-03T08:21:35.909Z,28.46
2018-06-03T08:22:44.008Z,28.83
2018-06-03T08:23:52.065Z,29.10
2018-06-03T08:25:00.169Z,29.64
2018-06-03T08:26:08.262Z,29.96
2018-06-03T08:27:16.341Z,29.40
2018-06-03T08:28:24.373Z,29.05
2018-06-03T08:29:32.474Z,29.05
2018-06-03T08:30:40.556Z,28.92
2018-06-03T08:31:48.650Z,28.84
2018-06-03T08:32:56.737Z,28.89
2018-06-03T08:34:04.819Z,28.97
2018-06-03T08:35:12.936Z,29.27
2018-06-03T08:36:20.985Z,29.55
2018-06-03T08:37:29.062Z,29.50
2018-06-03T08:38:37.144Z,29.09
2018-06-03T08:39:45.225Z,28.68
2018-06-03T08:40:53.316Z,28.71
2018-06-03T08:42:01.380Z,28.86
2018-06-03T08:43:09.473Z,28.83
2018-06-03T08:44:17.555Z,28.94
2018-06-03T08:45:25.635Z,29.05
2018-06-03T08:46:33.692Z,29.28
2018-06-03T08:47:41.808Z,29.50
2018-06-03T08:48:49.891Z,29.58
2018-06-03T08:49:57.972Z,29.62
2018-06-03T08:51:06.065Z,29.68
2018-06-03T08:52:14.116Z,29.68
2018-06-03T08:53:22.231Z,29.50
2018-06-03T08:54:30.353Z,29.40
2018-06-03T08:55:38.402Z,29.35
2018-06-03T08:56:46.469Z,29.27
2018-06-03T08:57:54.553Z,29.44
2018-06-03T08:59:02.647Z,29.61
2018-06-03T09:00:10.716Z,29.89
2018-06-03T09:01:18.809Z,30.17
2018-06-03T09:02:26.894Z,30.26
2018-06-03T09:03:34.976Z,30.38
2018-06-03T09:04:43.066Z,30.26
2018-06-03T09:05:51.156Z,30.10
2018-06-03T09:06:59.304Z,29.79
2018-06-03T09:08:07.317Z,29.64
2018-06-03T09:09:15.391Z,29.57
2018-06-03T09:10:23.477Z,29.57
2018-06-03T09:11:31.563Z,29.64
2018-06-03T09:12:39.653Z,29.28
2018-06-03T09:13:47.735Z,28.93
2018-06-03T09:14:55.818Z,28.70
2018-06-03T09:16:03.885Z,28.64
2018-06-03T09:17:11.989Z,28.72
2018-06-03T09:18:20.061Z,28.82
2018-06-03T09:19:28.154Z,28.74
2018-06-03T09:20:36.240Z,28.49
2018-06-03T09:21:44.294Z,28.46
2018-06-03T09:22:52.397Z,28.38
2018-06-03T09:24:00.478Z,28.49
2018-06-03T09:25:08.590Z,28.31
2018-06-03T09:26:16.631Z,27.91
2018-06-03T09:27:24.730Z,27.55
2018-06-03T09:28:32.814Z,27.33
2018-06-03T09:29:40.891Z,27.19
2018-06-03T09:30:48.974Z,27.13
2018-06-03T09:31:57.055Z,27.07
2018-06-03T09:33:05.179Z,26.98
2018-06-03T09:34:13.212Z,26.96
2018-06-03T09:35:21.279Z,27.03
2018-06-03T09:36:29.362Z,26.88
2018-06-03T09:37:37.448Z,26.71
2018-06-03T09:38:45.539Z,26.53
2018-06-03T09:39:53.584Z,26.37
2018-06-03T09:41:01.697Z,26.29
2018-06-03T09:42:09.833Z,26.18
2018-06-03T09:43:17.844Z,26.23
2018-06-03T09:44:25.973Z,26.33
2018-06-03T09:45:33.983Z,26.41
2018-06-03T09:46:42.088Z,26.64
2018-06-03T09:47:50.165Z,26.86
2018-06-03T09:48:58.245Z,26.73
2018-06-03T09:50:06.327Z,26.64
2018-06-03T09:51:14.376Z,26.81
2018-06-03T09:52:22.461Z,26.89
2018-06-03T09:53:30.547Z,26.96
2018-06-03T09:54:38.600Z,27.08
2018-06-03T09:55:46.692Z,27.19
2018-06-03T09:56:54.784Z,27.44
2018-06-03T09:58:02.850Z,27.57
2018-06-03T09:59:10.925Z,27.33
2018-06-03T10:00:19.070Z,27.33
2018-06-03T10:01:27.082Z,27.03
2018-06-03T10:02:35.170Z,26.74
2018-06-03T10:03:43.253Z,26.81
2018-06-03T10:04:51.356Z,26.86
2018-06-03T10:05:59.395Z,26.89
2018-06-03T10:07:07.470Z,26.91
2018-06-03T10:08:15.548Z,27.03
2018-06-03T10:09:23.633Z,27.05
2018-06-03T10:10:31.690Z,27.05
2018-06-03T10:11:39.779Z,27.00
2018-06-03T10:12:47.856Z,26.70
2018-06-03T10:13:55.923Z,26.73
2018-06-03T10:15:03.985Z,26.66
2018-06-03T10:16:12.152Z,26.70
2018-06-03T10:17:20.151Z,26.44
2018-06-03T10:18:28.244Z,26.06
2018-06-03T10:19:36.304Z,25.68
2018-06-03T10:20:44.364Z,25.46
2018-06-03T10:21:52.474Z,25.37
2018-06-03T10:23:00.536Z,25.15
2018-06-03T10:24:08.614Z,25.30
2018-06-03T10:25:16.695Z,25.37
2018-06-03T10:26:24.761Z,25.61
2018-06-03T10:27:32.845Z,25.91
2018-06-03T10:28:40.904Z,26.04
2018-06-03T10:29:49.008Z,26.15
2018-06-03T10:30:57.068Z,26.42
2018-06-03T10:32:05.153Z,26.64
2018-06-03T10:33:13.223Z,26.79
2018-06-03T10:34:21.307Z,26.93
2018-06-03T10:35:29.373Z,26.91
2018-06-03T10:36:37.463Z,26.66
2018-06-03T10:37:45.523Z,26.78
2018-06-03T10:38:53.599Z,26.64
2018-06-03T10:40:01.759Z,26.74
2018-06-03T10:41:09.760Z,26.78
2018-06-03T10:42:17.828Z,26.92
2018-06-03T10:43:25.917Z,26.98
2018-06-03T10:44:33.956Z,27.04
2018-06-03T10:45:42.053Z,27.35
2018-06-03T10:46:50.133Z,27.23
2018-06-03T10:47:58.210Z,27.03
2018-06-03T10:49:06.288Z,26.97
2018-06-03T10:50:14.353Z,27.04
2018-06-03T10:51:22.448Z,26.97
2018-06-03T10:52:30.522Z,27.19
2018-06-03T10:53:38.589Z,27.34
2018-06-03T10:54:46.680Z,27.55
2018-06-03T10:55:54.743Z,27.61
2018-06-03T10:57:02.814Z,27.81
2018-06-03T10:58:10.903Z,27.78
2018-06-03T10:59:18.967Z,27.72
2018-06-03T11:00:27.053Z,27.90
2018-06-03T11:01:35.127Z,28.03
2018-06-03T11:02:43.195Z,28.03
2018-06-03T11:03:51.278Z,27.81
2018-06-03T11:04:59.361Z,27.75
2018-06-03T11:06:07.440Z,27.81
2018-06-03T11:07:15.612Z,27.88
2018-06-03T11:08:23.570Z,27.91
2018-06-03T11:09:31.655Z,27.88
2018-06-03T11:10:39.751Z,27.91
2018-06-03T11:11:47.814Z,27.95
2018-06-03T11:12:55.889Z,27.82
2018-06-03T11:14:03.932Z,27.64
2018-06-03T11:15:12.037Z,27.64
2018-06-03T11:16:20.117Z,27.61
2018-06-03T11:17:28.197Z,27.50
2018-06-03T11:18:36.274Z,27.60
2018-06-03T11:19:44.322Z,27.63
2018-06-03T11:20:52.415Z,27.63
2018-06-03T11:22:00.493Z,27.94
2018-06-03T11:23:08.568Z,28.16
2018-06-03T11:24:16.646Z,28.16
2018-06-03T11:25:24.742Z,28.33
2018-06-03T11:26:32.801Z,28.30
2018-06-03T11:27:40.865Z,28.33
2018-06-03T11:28:48.957Z,28.08
2018-06-03T11:29:57.034Z,27.93
2018-06-03T11:31:05.106Z,27.63
2018-06-03T11:32:13.198Z,27.30
2018-06-03T11:33:21.276Z,27.16
2018-06-03T11:34:29.346Z,27.01
2018-06-03T11:35:37.417Z,26.68
2018-06-03T11:36:45.498Z,26.74
2018-06-03T11:37:53.548Z,26.92
2018-06-03T11:39:01.655Z,27.10
2018-06-03T11:40:09.909Z,27.16
2018-06-03T11:41:17.800Z,27.16
2018-06-03T11:42:25.878Z,27.43
2018-06-03T11:43:33.944Z,27.48
2018-06-03T11:44:42.038Z,27.57
2018-06-03T11:45:50.110Z,27.71
2018-06-03T11:46:58.190Z,27.93
2018-06-03T11:48:06.262Z,28.03
2018-06-03T11:49:14.301Z,28.19
2018-06-03T11:50:22.409Z,28.12
2018-06-03T11:51:30.489Z,28.20
2018-06-03T11:52:38.559Z,28.27
2018-06-03T11:53:46.657Z,28.34
2018-06-03T11:54:54.705Z,28.41
2018-06-03T11:56:02.788Z,28.52
2018-06-03T11:57:10.862Z,28.56
2018-06-03T11:58:18.929Z,28.55
2018-06-03T11:59:27.374Z,28.38
2018-06-03T12:00:35.085Z,28.31
2018-06-03T12:01:43.188Z,28.10
2018-06-03T12:02:51.264Z,28.01
2018-06-03T12:03:59.339Z,28.09
2018-06-03T12:05:07.408Z,28.10
2018-06-03T12:06:15.479Z,28.12
2018-06-03T12:07:23.566Z,27.98
2018-06-03T12:08:31.652Z,27.76
2018-06-03T12:09:39.728Z,27.73
2018-06-03T12:10:47.813Z,27.34
2018-06-03T12:11:55.888Z,27.05
2018-06-03T12:13:03.929Z,26.88
2018-06-03T12:14:12.051Z,26.68
2018-06-03T12:15:20.108Z,26.16
2018-06-03T12:16:28.185Z,26.06
2018-06-03T12:17:36.265Z,26.03
2018-06-03T12:18:44.321Z,25.98
2018-06-03T12:19:52.420Z,26.03
2018-06-03T12:21:00.483Z,26.13
2018-06-03T12:22:08.577Z,26.31
2018-06-03T12:23:16.645Z,26.42
2018-06-03T12:24:24.715Z,26.63
2018-06-03T12:25:32.818Z,26.82
2018-06-03T12:26:40.855Z,27.00
2018-06-03T12:27:48.955Z,27.18
2018-06-03T12:28:57.021Z,27.29
2018-06-03T12:30:05.092Z,27.29
2018-06-03T12:31:13.155Z,27.44
2018-06-03T12:32:21.243Z,27.52
2018-06-03T12:33:29.316Z,27.55
2018-06-03T12:34:37.377Z,27.64
2018-06-03T12:35:45.476Z,27.72
2018-06-03T12:36:53.537Z,27.75
2018-06-03T12:38:01.626Z,27.78
2018-06-03T12:39:09.685Z,27.58
2018-06-03T12:40:17.767Z,27.48
2018-06-03T12:41:25.853Z,27.44
2018-06-03T12:42:33.892Z,27.55
2018-06-03T12:43:42.029Z,27.57
2018-06-03T12:44:50.063Z,27.53
2018-06-03T12:45:58.136Z,27.29
2018-06-03T12:47:06.203Z,27.20
2018-06-03T12:48:14.248Z,27.19
2018-06-03T12:49:22.348Z,27.22
2018-06-03T12:50:30.418Z,27.08
2018-06-03T12:51:38.512Z,27.18
2018-06-03T12:52:46.579Z,27.03
2018-06-03T12:53:54.654Z,27.16
2018-06-03T12:55:02.719Z,27.16
2018-06-03T12:56:10.796Z,27.25
2018-06-03T12:57:18.869Z,27.29
2018-06-03T12:58:26.942Z,27.28
2018-06-03T12:59:35.022Z,27.38
2018-06-03T13:00:43.113Z,27.23
2018-06-03T13:01:51.195Z,27.13
2018-06-03T13:02:59.250Z,27.15
2018-06-03T13:04:07.320Z,27.19
2018-06-03T13:05:15.403Z,27.25
2018-06-03T13:06:23.534Z,27.26
2018-06-03T13:07:31.544Z,27.26
2018-06-03T13:08:39.628Z,27.19
2018-06-03T13:09:47.701Z,27.19
2018-06-03T13:10:55.770Z,27.13
2018-06-03T13:12:03.863Z,27.05
2018-06-03T13:13:11.924Z,26.92
2018-06-03T13:14:19.994Z,26.93
2018-06-03T13:15:28.078Z,27.07
2018-06-03T13:16:36.145Z,27.13
2018-06-03T13:17:44.201Z,27.20
2018-06-03T13:18:52.298Z,27.26
2018-06-03T13:20:00.372Z,27.23
2018-06-03T13:21:08.456Z,27.28
2018-06-03T13:22:16.523Z,27.22
2018-06-03T13:23:24.602Z,27.00
2018-06-03T13:24:32.658Z,26.98
2018-06-03T13:25:40.743Z,26.85
2018-06-03T13:26:48.818Z,26.88
2018-06-03T13:27:56.889Z,26.82
2018-06-03T13:29:04.975Z,26.67
2018-06-03T13:30:13.051Z,26.60
2018-06-03T13:31:21.108Z,26.56
2018-06-03T13:32:29.193Z,26.67
2018-06-03T13:33:37.268Z,26.64
2018-06-03T13:34:45.357Z,26.63
2018-06-03T13:35:53.423Z,26.64
2018-06-03T13:37:01.502Z,26.34
2018-06-03T13:38:09.577Z,26.42
2018-06-03T13:39:17.652Z,26.34
2018-06-03T13:40:25.735Z,26.49
2018-06-03T13:41:33.780Z,26.59
2018-06-03T13:42:41.894Z,26.61
2018-06-03T13:43:49.942Z,26.55
2018-06-03T13:44:58.023Z,26.74
2018-06-03T13:46:06.119Z,26.78
2018-06-03T13:47:14.142Z,26.82
2018-06-03T13:48:22.224Z,26.81
2018-06-03T13:49:30.314Z,26.81
2018-06-03T13:50:38.395Z,26.83
2018-06-03T13:51:46.486Z,26.79
2018-06-03T13:52:54.545Z,26.82
2018-06-03T13:54:02.628Z,26.74
2018-06-03T13:55:10.703Z,26.68
2018-06-03T13:56:18.763Z,26.70
2018-06-03T13:57:26.863Z,26.60
2018-06-03T13:58:34.935Z,26.56
2018-06-03T13:59:44.799Z,26.56
2018-06-03T14:00:53.858Z,26.53
2018-06-03T14:02:01.956Z,26.56
2018-06-03T14:03:14.052Z,26.52
2018-06-03T14:04:18.100Z,26.55
2018-06-03T14:05:26.169Z,26.53
2018-06-03T14:06:34.225Z,26.39
2018-06-03T14:07:42.312Z,26.27
2018-06-03T14:08:50.393Z,26.18
2018-06-03T14:09:58.468Z,26.31
2018-06-03T14:11:06.550Z,26.15
2018-06-03T14:12:14.617Z,26.18
2018-06-03T14:13:22.692Z,26.24
2018-06-03T14:14:30.766Z,26.15
2018-06-03T14:15:38.831Z,26.31
2018-06-03T14:16:46.922Z,26.19
2018-06-03T14:17:54.983Z,26.33
2018-06-03T14:19:03.049Z,26.27
2018-06-03T14:20:11.130Z,26.03
2018-06-03T14:21:19.199Z,26.11
2018-06-03T14:22:27.279Z,26.04
2018-06-03T14:23:35.351Z,26.08
2018-06-03T14:24:43.419Z,26.15
2018-06-03T14:25:51.504Z,26.03
2018-06-03T14:26:59.569Z,25.99
2018-06-03T14:28:07.659Z,25.99
2018-06-03T14:29:15.720Z,26.01
2018-06-03T14:30:23.770Z,26.03
2018-06-03T14:31:31.872Z,26.08
2018-06-03T14:32:39.938Z,25.99
2018-06-03T14:33:48.009Z,26.04
2018-06-03T14:34:56.107Z,26.06
2018-06-03T14:36:04.142Z,25.98